createdAt,value
2023-01-28T00:00:03.207Z,1016.32
2023-01-28T00:01:02.797Z,1016.29
2023-01-28T00:02:03.009Z,1016.30
2023-01-28T00:03:03.368Z,1016.28
2023-01-28T00:04:02.891Z,1016.28
2023-01-28T00:05:03.332Z,1016.31
2023-01-28T00:06:02.895Z,1016.21
2023-01-28T00:07:03.300Z,1016.23
2023-01-28T00:08:03.205Z,1016.27
2023-01-28T00:09:02.832Z,1016.25
2023-01-28T00:10:03.075Z,1016.23
2023-01-28T00:11:03.395Z,1016.25
2023-01-28T00:12:02.598Z,1016.24
2023-01-28T00:13:02.240Z,1016.23
2023-01-28T00:14:02.462Z,1016.25
2023-01-28T00:15:02.381Z,1016.19
2023-01-28T00:16:02.142Z,1016.19
2023-01-28T00:17:02.981Z,1016.19
2023-01-28T00:18:03.225Z,1016.15
2023-01-28T00:19:02.996Z,1016.17
2023-01-28T00:20:02.892Z,1016.14
2023-01-28T00:21:02.687Z,1016.17
2023-01-28T00:22:02.839Z,1016.19
2023-01-28T00:23:02.352Z,1016.16
2023-01-28T00:24:02.489Z,1016.14
2023-01-28T00:25:02.858Z,1016.11
2023-01-28T00:26:02.436Z,1016.12
2023-01-28T00:27:01.922Z,1016.15
2023-01-28T00:28:02.358Z,1016.11
2023-01-28T00:29:02.078Z,1016.07
2023-01-28T00:30:01.881Z,1016.06
2023-01-28T00:31:02.392Z,1016.04
2023-01-28T00:32:02.740Z,1016.11
2023-01-28T00:33:02.198Z,1016.08
2023-01-28T00:34:02.555Z,1016.06
2023-01-28T00:35:02.381Z,1016.10
2023-01-28T00:36:02.766Z,1016.10
2023-01-28T00:37:02.851Z,1016.07
2023-01-28T00:38:02.913Z,1016.05
2023-01-28T00:39:02.320Z,1016.13
2023-01-28T00:40:02.869Z,1016.15
2023-01-28T00:41:02.886Z,1016.13
2023-01-28T00:42:02.370Z,1016.09
2023-01-28T00:43:02.815Z,1016.06
2023-01-28T00:44:02.517Z,1016.11
2023-01-28T00:45:02.894Z,1016.08
2023-01-28T00:46:02.617Z,1016.14
2023-01-28T00:47:02.360Z,1016.15
2023-01-28T00:48:02.448Z,1016.11
2023-01-28T00:49:02.735Z,1016.11
2023-01-28T00:50:02.620Z,1016.09
2023-01-28T00:51:03.075Z,1016.14
2023-01-28T00:52:02.557Z,1016.10
2023-01-28T00:53:02.862Z,1016.17
2023-01-28T00:54:02.621Z,1016.10
2023-01-28T00:55:02.981Z,1016.15
2023-01-28T00:56:02.614Z,1016.10
2023-01-28T00:57:02.103Z,1016.12
2023-01-28T00:58:02.417Z,1016.10
2023-01-28T00:59:02.034Z,1016.09
2023-01-28T01:00:02.301Z,1016.14
2023-01-28T01:01:02.049Z,1016.09
2023-01-28T01:02:03.021Z,1016.11
2023-01-28T01:03:02.550Z,1016.08
2023-01-28T01:04:03.274Z,1016.11
2023-01-28T01:05:02.611Z,1016.12
2023-01-28T01:06:02.981Z,1016.06
2023-01-28T01:07:02.511Z,1016.04
2023-01-28T01:08:02.810Z,1016.07
2023-01-28T01:09:02.443Z,1016.09
2023-01-28T01:10:02.871Z,1016.14
2023-01-28T01:11:02.663Z,1016.03
2023-01-28T01:12:02.074Z,1016.09
2023-01-28T01:13:02.491Z,1016.03
2023-01-28T01:14:02.147Z,1016.05
2023-01-28T01:15:02.684Z,1016.01
2023-01-28T01:16:02.481Z,1016.02
2023-01-28T01:17:02.250Z,1016.01
2023-01-28T01:18:02.639Z,1016.06
2023-01-28T01:19:02.252Z,1016.05
2023-01-28T01:20:02.656Z,1016.00
2023-01-28T01:21:02.579Z,1016.06
2023-01-28T01:22:02.301Z,1016.08
2023-01-28T01:23:02.645Z,1016.04
2023-01-28T01:24:02.369Z,1016.08
2023-01-28T01:25:02.748Z,1016.08
2023-01-28T01:26:02.357Z,1016.09
2023-01-28T01:27:02.721Z,1016.08
2023-01-28T01:28:03.076Z,1016.13
2023-01-28T01:29:02.703Z,1016.05
2023-01-28T01:30:02.681Z,1016.06
2023-01-28T01:31:03.146Z,1016.12
2023-01-28T01:32:03.364Z,1016.12
2023-01-28T01:33:03.098Z,1016.15
2023-01-28T01:34:02.837Z,1016.11
2023-01-28T01:35:03.259Z,1016.06
2023-01-28T01:36:02.974Z,1016.05
2023-01-28T01:37:02.454Z,1016.09
2023-01-28T01:38:02.765Z,1016.10
2023-01-28T01:39:02.400Z,1016.10
2023-01-28T01:40:02.715Z,1016.14
2023-01-28T01:41:02.366Z,1016.12
2023-01-28T01:42:03.114Z,1016.12
2023-01-28T01:43:02.838Z,1016.12
2023-01-28T01:44:03.254Z,1016.16
2023-01-28T01:45:02.754Z,1016.12
2023-01-28T01:46:03.094Z,1016.10
2023-01-28T01:47:02.793Z,1016.13
2023-01-28T01:48:03.211Z,1016.14
2023-01-28T01:49:03.261Z,1016.08
2023-01-28T01:50:02.744Z,1016.04
2023-01-28T01:51:03.152Z,1016.10
2023-01-28T01:52:02.871Z,1016.05
2023-01-28T01:53:03.181Z,1016.08
2023-01-28T01:54:03.162Z,1016.10
2023-01-28T01:55:02.707Z,1016.08
2023-01-28T01:56:03.325Z,1016.01
2023-01-28T01:57:02.594Z,1016.01
2023-01-28T01:58:02.941Z,1016.03
2023-01-28T01:59:02.494Z,1016.03
2023-01-28T02:00:02.890Z,1016.06
2023-01-28T02:01:02.886Z,1016.06
2023-01-28T02:02:02.590Z,1016.11
2023-01-28T02:03:03.068Z,1016.13
2023-01-28T02:04:02.519Z,1016.11
2023-01-28T02:05:02.965Z,1016.21
2023-01-28T02:06:02.464Z,1016.17
2023-01-28T02:07:02.037Z,1016.19
2023-01-28T02:08:01.797Z,1016.21
2023-01-28T02:09:02.183Z,1016.25
2023-01-28T02:10:01.828Z,1016.29
2023-01-28T02:11:01.666Z,1016.31
2023-01-28T02:12:02.521Z,1016.29
2023-01-28T02:13:02.867Z,1016.28
2023-01-28T02:14:02.321Z,1016.32
2023-01-28T02:15:02.648Z,1016.31
2023-01-28T02:16:02.362Z,1016.30
2023-01-28T02:17:02.705Z,1016.32
2023-01-28T02:18:02.582Z,1016.32
2023-01-28T02:19:03.079Z,1016.30
2023-01-28T02:20:02.498Z,1016.35
2023-01-28T02:21:02.941Z,1016.34
2023-01-28T02:22:02.149Z,1016.37
2023-01-28T02:23:02.708Z,1016.41
2023-01-28T02:24:02.259Z,1016.41
2023-01-28T02:25:02.551Z,1016.38
2023-01-28T02:26:02.196Z,1016.42
2023-01-28T02:27:02.563Z,1016.39
2023-01-28T02:28:02.558Z,1016.37
2023-01-28T02:29:02.362Z,1016.41
2023-01-28T02:30:02.815Z,1016.33
2023-01-28T02:31:02.394Z,1016.42
2023-01-28T02:32:02.716Z,1016.42
2023-01-28T02:33:02.985Z,1016.39
2023-01-28T02:34:02.682Z,1016.45
2023-01-28T02:35:02.841Z,1016.46
2023-01-28T02:36:02.656Z,1016.37
2023-01-28T02:37:02.113Z,1016.36
2023-01-28T02:38:02.060Z,1016.41
2023-01-28T02:39:01.886Z,1016.40
2023-01-28T02:40:01.756Z,1016.37
2023-01-28T02:41:02.317Z,1016.41
2023-01-28T02:42:02.496Z,1016.32
2023-01-28T02:43:02.165Z,1016.42
2023-01-28T02:44:02.543Z,1016.39
2023-01-28T02:45:02.213Z,1016.36
2023-01-28T02:46:02.307Z,1016.42
2023-01-28T02:47:02.448Z,1016.32
2023-01-28T02:48:02.970Z,1016.39
2023-01-28T02:49:02.683Z,1016.38
2023-01-28T02:50:02.454Z,1016.39
2023-01-28T02:51:02.824Z,1016.42
2023-01-28T02:52:02.270Z,1016.42
2023-01-28T02:53:02.442Z,1016.41
2023-01-28T02:54:01.818Z,1016.36
2023-01-28T02:55:02.191Z,1016.31
2023-01-28T02:56:02.332Z,1016.40
2023-01-28T02:57:02.647Z,1016.40
2023-01-28T02:58:02.306Z,1016.40
2023-01-28T02:59:02.635Z,1016.43
2023-01-28T03:00:02.259Z,1016.45
2023-01-28T03:01:02.669Z,1016.45
2023-01-28T03:02:03.069Z,1016.44
2023-01-28T03:03:03.034Z,1016.45
2023-01-28T03:04:03.292Z,1016.46
2023-01-28T03:05:02.656Z,1016.46
2023-01-28T03:06:03.100Z,1016.45
2023-01-28T03:07:02.135Z,1016.45
2023-01-28T03:08:02.248Z,1016.41
2023-01-28T03:09:02.622Z,1016.47
2023-01-28T03:10:02.161Z,1016.43
2023-01-28T03:11:02.509Z,1016.43
2023-01-28T03:12:02.815Z,1016.52
2023-01-28T03:13:02.498Z,1016.52
2023-01-28T03:14:02.834Z,1016.53
2023-01-28T03:15:02.491Z,1016.58
2023-01-28T03:16:02.753Z,1016.59
2023-01-28T03:17:03.174Z,1016.55
2023-01-28T03:18:02.822Z,1016.59
2023-01-28T03:19:03.232Z,1016.69
2023-01-28T03:20:02.883Z,1016.74
2023-01-28T03:21:02.884Z,1016.71
2023-01-28T03:22:02.936Z,1016.73
2023-01-28T03:23:03.164Z,1016.80
2023-01-28T03:24:02.977Z,1016.78
2023-01-28T03:25:02.861Z,1016.75
2023-01-28T03:26:03.243Z,1016.77
2023-01-28T03:27:02.661Z,1016.76
2023-01-28T03:28:02.327Z,1016.76
2023-01-28T03:29:02.654Z,1016.80
2023-01-28T03:30:02.308Z,1016.79
2023-01-28T03:31:02.674Z,1016.82
2023-01-28T03:32:02.948Z,1016.83
2023-01-28T03:33:03.208Z,1016.79
2023-01-28T03:34:03.284Z,1016.82
2023-01-28T03:35:02.679Z,1016.82
2023-01-28T03:36:03.079Z,1016.86
2023-01-28T03:37:01.900Z,1016.86
2023-01-28T03:38:02.400Z,1016.95
2023-01-28T03:39:02.129Z,1016.92
2023-01-28T03:40:01.861Z,1016.94
2023-01-28T03:41:02.198Z,1016.97
2023-01-28T03:42:02.523Z,1017.01
2023-01-28T03:43:02.201Z,1017.02
2023-01-28T03:44:02.474Z,1017.01
2023-01-28T03:45:02.349Z,1017.03
2023-01-28T03:46:02.739Z,1017.01
2023-01-28T03:47:02.724Z,1017.01
2023-01-28T03:48:02.565Z,1017.07
2023-01-28T03:49:02.299Z,1017.01
2023-01-28T03:50:02.956Z,1017.05
2023-01-28T03:51:02.461Z,1017.01
2023-01-28T03:52:02.152Z,1016.98
2023-01-28T03:53:02.465Z,1017.04
2023-01-28T03:54:02.208Z,1016.97
2023-01-28T03:55:02.052Z,1016.99
2023-01-28T03:56:02.293Z,1017.02
2023-01-28T03:57:02.618Z,1017.02
2023-01-28T03:58:02.088Z,1017.06
2023-01-28T03:59:02.469Z,1017.01
2023-01-28T04:00:02.179Z,1017.06
2023-01-28T04:01:02.165Z,1017.01
2023-01-28T04:02:02.580Z,1017.03
2023-01-28T04:03:03.002Z,1017.04
2023-01-28T04:04:02.670Z,1017.05
2023-01-28T04:05:03.272Z,1017.08
2023-01-28T04:06:02.675Z,1017.06
2023-01-28T04:07:02.595Z,1017.03
2023-01-28T04:08:02.167Z,1017.09
2023-01-28T04:09:02.372Z,1017.05
2023-01-28T04:10:02.600Z,1017.02
2023-01-28T04:11:02.133Z,1017.05
2023-01-28T04:12:03.016Z,1017.05
2023-01-28T04:13:02.656Z,1017.03
2023-01-28T04:14:02.964Z,1017.07
2023-01-28T04:15:02.866Z,1017.02
2023-01-28T04:16:02.581Z,1017.05
2023-01-28T04:17:01.895Z,1017.03
2023-01-28T04:18:02.228Z,1017.03
2023-01-28T04:19:01.950Z,1017.10
2023-01-28T04:20:02.004Z,1017.08
2023-01-28T04:21:02.391Z,1017.07
2023-01-28T04:22:02.198Z,1017.12
2023-01-28T04:23:02.551Z,1017.10
2023-01-28T04:24:02.562Z,1017.09
2023-01-28T04:25:02.584Z,1017.07
2023-01-28T04:26:02.309Z,1017.09
2023-01-28T04:27:02.567Z,1017.05
2023-01-28T04:28:02.897Z,1017.03
2023-01-28T04:29:02.824Z,1017.02
2023-01-28T04:30:03.100Z,1017.08
2023-01-28T04:31:03.066Z,1017.11
2023-01-28T04:32:02.342Z,1017.10
2023-01-28T04:33:02.741Z,1017.08
2023-01-28T04:34:02.670Z,1017.10
2023-01-28T04:35:02.331Z,1017.12
2023-01-28T04:36:02.621Z,1017.15
2023-01-28T04:37:02.314Z,1017.17
2023-01-28T04:38:02.222Z,1017.15
2023-01-28T04:39:02.719Z,1017.12
2023-01-28T04:40:02.137Z,1017.09
2023-01-28T04:41:02.466Z,1017.13
2023-01-28T04:42:01.868Z,1017.18
2023-01-28T04:43:02.213Z,1017.13
2023-01-28T04:44:02.262Z,1017.16
2023-01-28T04:45:01.832Z,1017.19
2023-01-28T04:46:02.092Z,1017.23
2023-01-28T04:47:02.566Z,1017.22
2023-01-28T04:48:02.780Z,1017.25
2023-01-28T04:49:02.643Z,1017.29
2023-01-28T04:50:02.346Z,1017.33
2023-01-28T04:51:02.712Z,1017.32
2023-01-28T04:52:02.078Z,1017.40
2023-01-28T04:53:02.462Z,1017.33
2023-01-28T04:54:02.350Z,1017.36
2023-01-28T04:55:02.089Z,1017.29
2023-01-28T04:56:02.408Z,1017.36
2023-01-28T04:57:02.598Z,1017.34
2023-01-28T04:58:02.845Z,1017.31
2023-01-28T04:59:02.307Z,1017.34
2023-01-28T05:00:02.576Z,1017.38
2023-01-28T05:01:02.449Z,1017.34
2023-01-28T05:02:02.916Z,1017.31
2023-01-28T05:03:02.852Z,1017.33
2023-01-28T05:04:02.615Z,1017.37
2023-01-28T05:05:03.050Z,1017.34
2023-01-28T05:06:02.796Z,1017.34
2023-01-28T05:07:03.148Z,1017.36
2023-01-28T05:08:03.011Z,1017.37
2023-01-28T05:09:03.482Z,1017.41
2023-01-28T05:10:02.935Z,1017.44
2023-01-28T05:11:03.383Z,1017.47
2023-01-28T05:12:02.815Z,1017.44
2023-01-28T05:13:02.645Z,1017.48
2023-01-28T05:14:03.039Z,1017.46
2023-01-28T05:16:02.935Z,1017.44
2023-01-28T05:17:03.458Z,1017.45
2023-01-28T05:18:03.539Z,1017.43
2023-01-28T05:19:03.262Z,1017.44
2023-01-28T05:20:05.151Z,1017.45
2023-01-28T05:21:05.106Z,1017.49
2023-01-28T05:22:04.188Z,1017.50
2023-01-28T05:23:04.102Z,1017.47
2023-01-28T05:24:04.061Z,1017.47
2023-01-28T05:25:04.011Z,1017.48
2023-01-28T05:26:03.962Z,1017.49
2023-01-28T05:27:04.582Z,1017.48
2023-01-28T05:28:04.667Z,1017.49
2023-01-28T05:29:04.561Z,1017.49
2023-01-28T05:30:04.494Z,1017.45
2023-01-28T05:31:04.418Z,1017.43
2023-01-28T05:32:04.067Z,1017.37
2023-01-28T05:33:04.015Z,1017.41
2023-01-28T05:34:04.282Z,1017.47
2023-01-28T05:35:04.247Z,1017.48
2023-01-28T05:36:04.226Z,1017.55
2023-01-28T05:37:04.175Z,1017.51
2023-01-28T05:38:02.851Z,1017.50
2023-01-28T05:39:02.667Z,1017.49
2023-01-28T05:40:02.338Z,1017.53
2023-01-28T05:41:04.156Z,1017.56
2023-01-28T05:42:04.784Z,1017.52
2023-01-28T05:43:04.848Z,1017.58
2023-01-28T05:44:04.826Z,1017.58
2023-01-28T05:45:04.790Z,1017.54
2023-01-28T05:46:04.710Z,1017.50
2023-01-28T05:47:04.326Z,1017.54
2023-01-28T05:48:04.528Z,1017.56
2023-01-28T05:49:03.794Z,1017.62
2023-01-28T05:50:03.983Z,1017.57
2023-01-28T05:51:04.251Z,1017.58
2023-01-28T05:52:04.900Z,1017.56
2023-01-28T05:53:04.401Z,1017.55
2023-01-28T05:54:05.030Z,1017.59
2023-01-28T05:55:04.536Z,1017.62
2023-01-28T05:56:04.387Z,1017.64
2023-01-28T05:57:04.440Z,1017.59
2023-01-28T05:58:04.617Z,1017.60
2023-01-28T05:59:03.886Z,1017.65
2023-01-28T06:00:04.128Z,1017.66
2023-01-28T06:01:04.199Z,1017.66
2023-01-28T06:02:04.901Z,1017.72
2023-01-28T06:03:04.916Z,1017.72
2023-01-28T06:04:04.917Z,1017.75
2023-01-28T06:05:04.962Z,1017.73
2023-01-28T06:06:04.282Z,1017.69
2023-01-28T06:07:04.485Z,1017.63
2023-01-28T06:08:04.021Z,1017.73
2023-01-28T06:09:04.384Z,1017.70
2023-01-28T06:10:04.384Z,1017.72
2023-01-28T06:11:03.968Z,1017.77
2023-01-28T06:12:04.579Z,1017.73
2023-01-28T06:13:04.577Z,1017.71
2023-01-28T06:14:04.529Z,1017.77
2023-01-28T06:15:04.509Z,1017.74
2023-01-28T06:16:04.324Z,1017.78
2023-01-28T06:17:03.368Z,1017.80
2023-01-28T06:18:04.047Z,1017.76
2023-01-28T06:19:03.357Z,1017.78
2023-01-28T06:20:03.569Z,1017.84
2023-01-28T06:21:03.532Z,1017.85
2023-01-28T06:22:02.102Z,1017.83
2023-01-28T06:23:02.205Z,1017.82
2023-01-28T06:24:02.629Z,1017.86
2023-01-28T06:25:02.708Z,1017.80
2023-01-28T06:26:02.722Z,1017.83
2023-01-28T06:27:02.239Z,1017.83
2023-01-28T06:28:02.642Z,1017.79
2023-01-28T06:29:02.292Z,1017.89
2023-01-28T06:30:02.674Z,1017.88
2023-01-28T06:31:02.354Z,1017.90
2023-01-28T06:32:01.966Z,1017.89
2023-01-28T06:33:02.071Z,1017.94
2023-01-28T06:34:02.428Z,1017.94
2023-01-28T06:35:01.896Z,1017.91
2023-01-28T06:36:02.289Z,1017.92
2023-01-28T06:37:02.471Z,1017.94
2023-01-28T06:38:02.132Z,1017.93
2023-01-28T06:39:02.191Z,1017.97
2023-01-28T06:40:01.886Z,1017.99
2023-01-28T06:41:02.194Z,1017.90
2023-01-28T06:42:02.562Z,1017.96
2023-01-28T06:43:02.977Z,1017.98
2023-01-28T06:44:02.690Z,1017.98
2023-01-28T06:45:03.058Z,1017.97
2023-01-28T06:46:02.937Z,1017.96
2023-01-28T06:47:01.784Z,1017.98
2023-01-28T06:48:03.045Z,1018.02
2023-01-28T06:49:01.665Z,1018.06
2023-01-28T06:50:02.089Z,1018.05
2023-01-28T06:51:01.848Z,1018.06
2023-01-28T06:52:02.320Z,1018.09
2023-01-28T06:53:02.504Z,1018.01
2023-01-28T06:54:02.249Z,1018.04
2023-01-28T06:55:02.615Z,1018.08
2023-01-28T06:56:02.352Z,1018.08
2023-01-28T06:57:01.602Z,1018.06
2023-01-28T06:58:01.712Z,1018.06
2023-01-28T06:59:01.836Z,1018.07
2023-01-28T07:00:01.640Z,1018.09
2023-01-28T07:01:02.206Z,1018.06
2023-01-28T07:02:02.478Z,1018.04
2023-01-28T07:03:02.442Z,1018.08
2023-01-28T07:04:02.255Z,1018.12
2023-01-28T07:05:02.750Z,1018.12
2023-01-28T07:06:02.479Z,1018.11
2023-01-28T07:07:02.005Z,1018.11
2023-01-28T07:08:01.709Z,1018.12
2023-01-28T07:09:02.174Z,1018.12
2023-01-28T07:10:01.973Z,1018.12
2023-01-28T07:11:01.726Z,1018.12
2023-01-28T07:12:02.199Z,1018.13
2023-01-28T07:13:01.955Z,1018.11
2023-01-28T07:14:02.450Z,1018.08
2023-01-28T07:15:02.231Z,1018.15
2023-01-28T07:16:02.053Z,1018.10
2023-01-28T07:17:02.588Z,1018.11
2023-01-28T07:18:03.118Z,1018.11
2023-01-28T07:19:02.737Z,1018.12
2023-01-28T07:20:02.547Z,1018.12
2023-01-28T07:21:02.355Z,1018.10
2023-01-28T07:22:01.910Z,1018.13
2023-01-28T07:23:01.711Z,1018.11
2023-01-28T07:24:02.211Z,1018.15
2023-01-28T07:25:01.800Z,1018.08
2023-01-28T07:26:02.113Z,1018.10
2023-01-28T07:27:02.284Z,1018.12
2023-01-28T07:28:02.093Z,1018.07
2023-01-28T07:29:02.552Z,1018.06
2023-01-28T07:30:02.472Z,1018.08
2023-01-28T07:31:02.040Z,1018.06
2023-01-28T07:32:01.694Z,1018.10
2023-01-28T07:33:01.493Z,1018.11
2023-01-28T07:34:01.425Z,1018.04
2023-01-28T07:35:01.506Z,1018.06
2023-01-28T07:36:01.850Z,1018.05
2023-01-28T07:37:02.075Z,1018.05
2023-01-28T07:38:01.891Z,1018.01
2023-01-28T07:39:01.697Z,1018.02
2023-01-28T07:40:01.760Z,1018.01
2023-01-28T07:41:02.218Z,1018.00
2023-01-28T07:42:01.715Z,1018.07
2023-01-28T07:43:01.575Z,1018.08
2023-01-28T07:44:01.788Z,1018.11
2023-01-28T07:45:01.393Z,1018.14
2023-01-28T07:46:01.272Z,1018.17
2023-01-28T07:47:01.819Z,1018.14
2023-01-28T07:48:01.996Z,1018.20
2023-01-28T07:49:01.792Z,1018.18
2023-01-28T07:50:01.590Z,1018.20
2023-01-28T07:51:01.344Z,1018.20
2023-01-28T07:52:01.807Z,1018.19
2023-01-28T07:53:01.594Z,1018.18
2023-01-28T07:54:01.360Z,1018.28
2023-01-28T07:55:01.827Z,1018.27
2023-01-28T07:56:01.585Z,1018.22
2023-01-28T07:57:02.352Z,1018.25
2023-01-28T07:58:02.144Z,1018.26
2023-01-28T07:59:01.911Z,1018.30
2023-01-28T08:00:02.399Z,1018.25
2023-01-28T08:01:02.357Z,1018.31
2023-01-28T08:02:03.227Z,1018.34
2023-01-28T08:03:03.705Z,1018.33
2023-01-28T08:04:03.469Z,1018.38
2023-01-28T08:05:03.532Z,1018.42
2023-01-28T08:06:03.474Z,1018.41
2023-01-28T08:07:03.011Z,1018.36
2023-01-28T08:08:03.119Z,1018.37
2023-01-28T08:09:02.946Z,1018.32
2023-01-28T08:10:02.646Z,1018.28
2023-01-28T08:11:02.788Z,1018.29
2023-01-28T08:12:02.761Z,1018.25
2023-01-28T08:13:02.300Z,1018.31
2023-01-28T08:14:02.810Z,1018.29
2023-01-28T08:15:02.659Z,1018.29
2023-01-28T08:16:02.821Z,1018.31
2023-01-28T08:17:02.784Z,1018.24
2023-01-28T08:18:02.522Z,1018.23
2023-01-28T08:19:02.399Z,1018.20
2023-01-28T08:20:02.860Z,1018.20
2023-01-28T08:21:02.364Z,1018.16
2023-01-28T08:22:03.070Z,1018.27
2023-01-28T08:23:02.688Z,1018.22
2023-01-28T08:24:02.960Z,1018.23
2023-01-28T08:25:02.606Z,1018.24
2023-01-28T08:26:02.462Z,1018.21
2023-01-28T08:27:03.028Z,1018.28
2023-01-28T08:28:02.874Z,1018.22
2023-01-28T08:29:02.734Z,1018.25
2023-01-28T08:30:02.846Z,1018.28
2023-01-28T08:31:02.995Z,1018.24
2023-01-28T08:32:02.960Z,1018.17
2023-01-28T08:33:03.240Z,1018.15
2023-01-28T08:34:02.832Z,1018.15
2023-01-28T08:35:03.370Z,1018.17
2023-01-28T08:36:03.276Z,1018.20
2023-01-28T08:37:03.093Z,1018.21
2023-01-28T08:38:02.862Z,1018.26
2023-01-28T08:39:02.729Z,1018.26
2023-01-28T08:40:03.029Z,1018.29
2023-01-28T08:41:02.639Z,1018.30
2023-01-28T08:42:03.212Z,1018.27
2023-01-28T08:43:02.815Z,1018.25
2023-01-28T08:44:02.608Z,1018.26
2023-01-28T08:45:03.161Z,1018.27
2023-01-28T08:46:02.984Z,1018.34
2023-01-28T08:47:02.485Z,1018.36
2023-01-28T08:48:02.175Z,1018.37
2023-01-28T08:49:01.973Z,1018.39
2023-01-28T08:50:02.529Z,1018.43
2023-01-28T08:51:01.882Z,1018.41
2023-01-28T08:52:02.577Z,1018.42
2023-01-28T08:53:02.487Z,1018.41
2023-01-28T08:54:02.420Z,1018.44
2023-01-28T08:55:02.034Z,1018.40
2023-01-28T08:56:02.579Z,1018.42
2023-01-28T08:57:02.732Z,1018.49
2023-01-28T08:58:02.142Z,1018.50
2023-01-28T08:59:02.479Z,1018.52
2023-01-28T09:00:02.272Z,1018.57
2023-01-28T09:01:02.609Z,1018.54
2023-01-28T09:02:03.204Z,1018.58
2023-01-28T09:03:05.758Z,1018.55
2023-01-28T09:04:03.100Z,1018.64
2023-01-28T09:05:03.207Z,1018.59
2023-01-28T09:06:03.128Z,1018.61
2023-01-28T09:07:02.205Z,1018.65
2023-01-28T09:08:02.747Z,1018.64
2023-01-28T09:09:02.556Z,1018.65
2023-01-28T09:10:02.429Z,1018.63
2023-01-28T09:11:02.273Z,1018.57
2023-01-28T09:12:03.364Z,1018.54
2023-01-28T09:13:02.997Z,1018.57
2023-01-28T09:14:02.823Z,1018.52
2023-01-28T09:15:03.299Z,1018.49
2023-01-28T09:16:03.000Z,1018.53
2023-01-28T09:17:02.824Z,1018.53
2023-01-28T09:18:03.386Z,1018.57
2023-01-28T09:19:02.987Z,1018.59
2023-01-28T09:20:03.312Z,1018.52
2023-01-28T09:21:03.305Z,1018.60
2023-01-28T09:22:02.070Z,1018.62
2023-01-28T09:23:02.603Z,1018.57
2023-01-28T09:24:02.107Z,1018.62
2023-01-28T09:25:02.286Z,1018.70
2023-01-28T09:26:02.063Z,1018.66
2023-01-28T09:27:02.715Z,1018.75
2023-01-28T09:28:03.305Z,1018.70
2023-01-28T09:29:02.808Z,1018.73
2023-01-28T09:30:02.792Z,1018.72
2023-01-28T09:31:03.279Z,1018.78
2023-01-28T09:32:02.127Z,1018.80
2023-01-28T09:33:02.658Z,1018.86
2023-01-28T09:34:02.022Z,1018.90
2023-01-28T09:35:02.359Z,1018.85
2023-01-28T09:36:02.140Z,1018.87
2023-01-28T09:37:02.638Z,1018.83
2023-01-28T09:38:03.197Z,1018.83
2023-01-28T09:39:03.295Z,1018.87
2023-01-28T09:40:03.037Z,1018.90
2023-01-28T09:41:02.787Z,1018.95
2023-01-28T09:42:02.337Z,1018.97
2023-01-28T09:43:02.708Z,1018.98
2023-01-28T09:44:02.152Z,1019.00
2023-01-28T09:45:02.350Z,1019.02
2023-01-28T09:46:02.689Z,1019.00
2023-01-28T09:47:02.575Z,1019.01
2023-01-28T09:48:02.409Z,1019.07
2023-01-28T09:49:02.383Z,1019.03
2023-01-28T09:50:02.852Z,1019.08
2023-01-28T09:51:02.764Z,1019.11
2023-01-28T09:52:02.763Z,1019.08
2023-01-28T09:53:02.853Z,1019.06
2023-01-28T09:54:02.725Z,1019.06
2023-01-28T09:55:02.863Z,1019.09
2023-01-28T09:56:02.779Z,1019.11
2023-01-28T09:57:02.322Z,1019.10
2023-01-28T09:58:02.157Z,1019.09
2023-01-28T09:59:02.642Z,1019.15
2023-01-28T10:00:02.598Z,1019.10
2023-01-28T10:01:02.303Z,1019.20
2023-01-28T10:02:03.906Z,1019.24
2023-01-28T10:03:03.530Z,1019.18
2023-01-28T10:04:03.404Z,1019.19
2023-01-28T10:05:03.287Z,1019.24
2023-01-28T10:06:03.862Z,1019.23
2023-01-28T10:07:03.084Z,1019.24
2023-01-28T10:08:03.384Z,1019.32
2023-01-28T10:09:02.991Z,1019.30
2023-01-28T10:10:03.449Z,1019.24
2023-01-28T10:11:03.073Z,1019.24
2023-01-28T10:12:02.650Z,1019.22
2023-01-28T10:13:02.546Z,1019.25
2023-01-28T10:14:02.669Z,1019.25
2023-01-28T10:15:02.357Z,1019.24
2023-01-28T10:16:02.741Z,1019.21
2023-01-28T10:17:02.718Z,1019.31
2023-01-28T10:18:15.944Z,1019.31
2023-01-28T10:19:03.010Z,1019.31
2023-01-28T10:20:02.957Z,1019.32
2023-01-28T10:21:02.725Z,1019.33
2023-01-28T10:22:03.223Z,1019.26
2023-01-28T10:23:03.270Z,1019.23
2023-01-28T10:24:03.024Z,1019.27
2023-01-28T10:25:03.280Z,1019.29
2023-01-28T10:26:02.964Z,1019.28
2023-01-28T10:27:02.564Z,1019.29
2023-01-28T10:28:02.472Z,1019.27
2023-01-28T10:29:02.324Z,1019.29
2023-01-28T10:30:02.199Z,1019.26
2023-01-28T10:31:02.743Z,1019.24
2023-01-28T10:32:03.086Z,1019.27
2023-01-28T10:33:03.120Z,1019.17
2023-01-28T10:34:02.986Z,1019.15
2023-01-28T10:35:02.787Z,1019.08
2023-01-28T10:36:02.856Z,1019.10
2023-01-28T10:37:03.140Z,1019.08
2023-01-28T10:38:02.882Z,1019.18
2023-01-28T10:39:03.116Z,1019.18
2023-01-28T10:40:02.829Z,1019.15
2023-01-28T10:41:03.313Z,1019.14
2023-01-28T10:42:02.712Z,1019.13
2023-01-28T10:43:02.492Z,1019.13
2023-01-28T10:44:02.860Z,1019.11
2023-01-28T10:45:02.684Z,1019.06
2023-01-28T10:46:02.495Z,1019.15
2023-01-28T10:47:02.877Z,1019.13
2023-01-28T10:48:02.510Z,1019.17
2023-01-28T10:49:02.688Z,1019.17
2023-01-28T10:50:02.532Z,1019.25
2023-01-28T10:51:03.253Z,1019.23
2023-01-28T10:52:02.909Z,1019.22
2023-01-28T10:53:02.714Z,1019.22
2023-01-28T10:54:02.566Z,1019.17
2023-01-28T10:55:03.032Z,1019.18
2023-01-28T10:56:02.819Z,1019.14
2023-01-28T10:57:02.940Z,1019.16
2023-01-28T10:58:02.564Z,1019.18
2023-01-28T10:59:03.149Z,1019.17
2023-01-28T11:00:02.606Z,1019.12
2023-01-28T11:01:03.172Z,1019.12
2023-01-28T11:02:02.058Z,1019.09
2023-01-28T11:03:01.553Z,1019.11
2023-01-28T11:04:02.004Z,1019.14
2023-01-28T11:05:01.870Z,1019.13
2023-01-28T11:06:01.707Z,1019.14
2023-01-28T11:07:02.325Z,1019.15
2023-01-28T11:08:01.979Z,1019.14
2023-01-28T11:09:02.034Z,1019.05
2023-01-28T11:10:02.237Z,1019.10
2023-01-28T11:11:02.089Z,1019.07
2023-01-28T11:12:01.826Z,1019.10
2023-01-28T11:13:01.450Z,1019.15
2023-01-28T11:14:01.368Z,1019.18
2023-01-28T11:15:01.864Z,1019.21
2023-01-28T11:16:01.399Z,1019.17
2023-01-28T11:17:01.990Z,1019.19
2023-01-28T11:18:01.920Z,1019.20
2023-01-28T11:19:01.690Z,1019.16
2023-01-28T11:20:01.478Z,1019.19
2023-01-28T11:21:01.909Z,1019.21
2023-01-28T11:22:02.027Z,1019.27
2023-01-28T11:23:01.807Z,1019.23
2023-01-28T11:24:01.686Z,1019.22
2023-01-28T11:25:02.068Z,1019.27
2023-01-28T11:26:02.064Z,1019.22
2023-01-28T11:27:02.486Z,1019.14
2023-01-28T11:28:02.095Z,1019.06
2023-01-28T11:29:01.850Z,1019.10
2023-01-28T11:30:02.042Z,1019.05
2023-01-28T11:31:01.972Z,1019.04
2023-01-28T11:32:01.921Z,1019.05
2023-01-28T11:33:01.621Z,1018.95
2023-01-28T11:34:01.551Z,1018.96
2023-01-28T11:35:01.362Z,1018.95
2023-01-28T11:36:01.808Z,1018.97
2023-01-28T11:37:02.265Z,1018.88
2023-01-28T11:38:01.992Z,1018.93
2023-01-28T11:39:01.810Z,1018.89
2023-01-28T11:40:02.277Z,1018.92
2023-01-28T11:41:02.044Z,1018.94
2023-01-28T11:42:02.525Z,1018.94
2023-01-28T11:43:02.145Z,1018.89
2023-01-28T11:44:01.956Z,1018.98
2023-01-28T11:45:02.523Z,1018.98
2023-01-28T11:46:05.054Z,1019.00
2023-01-28T11:47:02.859Z,1018.96
2023-01-28T11:48:02.365Z,1018.97
2023-01-28T11:49:02.251Z,1018.99
2023-01-28T11:50:02.136Z,1018.96
2023-01-28T11:51:02.681Z,1019.00
2023-01-28T11:52:02.029Z,1018.97
2023-01-28T11:53:07.029Z,1018.97
2023-01-28T11:54:02.056Z,1018.99
2023-01-28T11:55:01.974Z,1019.03
2023-01-28T11:56:01.579Z,1018.99
2023-01-28T11:57:02.619Z,1019.03
2023-01-28T11:58:02.259Z,1018.97
2023-01-28T11:59:02.133Z,1018.97
2023-01-28T12:00:02.941Z,1018.95
2023-01-28T12:01:02.339Z,1018.95
2023-01-28T12:02:02.654Z,1018.91
2023-01-28T12:03:02.159Z,1018.99
2023-01-28T12:04:02.541Z,1019.00
2023-01-28T12:05:02.403Z,1019.02
2023-01-28T12:06:02.296Z,1018.98